sensor_id;sensor_type;location;lat;lon;timestamp;temperature;humidity
40177;DHT22;31511;46.176;9.874;2023-06-05T00:02:23;17.70;1.00
40177;DHT22;31511;46.176;9.874;2023-06-05T00:05:07;17.70;1.00
40177;DHT22;31511;46.176;9.874;2023-06-05T00:07:54;17.80;1.00
40177;DHT22;31511;46.176;9.874;2023-06-05T00:10:39;17.90;1.00
40177;DHT22;31511;46.176;9.874;2023-06-05T00:13:23;17.70;1.00
40177;DHT22;31511;46.176;9.874;2023-06-05T00:16:07;17.90;1.00
40177;DHT22;31511;46.176;9.874;2023-06-05T00:18:51;18.00;1.00
40177;DHT22;31511;46.176;9.874;2023-06-05T00:21:35;18.00;1.00
40177;DHT22;31511;46.176;9.874;2023-06-05T00:24:20;18.00;1.00
40177;DHT22;31511;46.176;9.874;2023-06-05T00:27:04;17.90;1.00
40177;DHT22;31511;46.176;9.874;2023-06-05T00:29:49;17.80;1.00
40177;DHT22;31511;46.176;9.874;2023-06-05T00:32:33;17.60;1.00
40177;DHT22;31511;46.176;9.874;2023-06-05T00:35:17;17.70;1.00
40177;DHT22;31511;46.176;9.874;2023-06-05T00:38:02;17.70;1.00
40177;DHT22;31511;46.176;9.874;2023-06-05T00:40:46;17.50;1.00
40177;DHT22;31511;46.176;9.874;2023-06-05T00:43:31;17.50;1.00
40177;DHT22;31511;46.176;9.874;2023-06-05T00:46:16;17.50;1.00
40177;DHT22;31511;46.176;9.874;2023-06-05T00:49:00;17.50;1.00
40177;DHT22;31511;46.176;9.874;2023-06-05T00:51:44;17.40;1.00
40177;DHT22;31511;46.176;9.874;2023-06-05T00:54:29;17.40;1.00
40177;DHT22;31511;46.176;9.874;2023-06-05T00:57:13;17.40;1.00
40177;DHT22;31511;46.176;9.874;2023-06-05T00:59:58;17.30;1.00
40177;DHT22;31511;46.176;9.874;2023-06-05T01:02:42;17.40;1.00
40177;DHT22;31511;46.176;9.874;2023-06-05T01:05:27;17.40;1.00
40177;DHT22;31511;46.176;9.874;2023-06-05T01:08:12;17.40;1.00
40177;DHT22;31511;46.176;9.874;2023-06-05T01:10:58;17.40;1.00
40177;DHT22;31511;46.176;9.874;2023-06-05T01:13:46;17.30;1.00
40177;DHT22;31511;46.176;9.874;2023-06-05T01:16:34;17.30;1.00
40177;DHT22;31511;46.176;9.874;2023-06-05T01:19:19;17.20;1.00
40177;DHT22;31511;46.176;9.874;2023-06-05T01:22:03;17.20;1.00
40177;DHT22;31511;46.176;9.874;2023-06-05T01:24:48;17.20;1.00
40177;DHT22;31511;46.176;9.874;2023-06-05T01:27:45;17.20;1.00
40177;DHT22;31511;46.176;9.874;2023-06-05T01:30:34;17.10;1.00
40177;DHT22;31511;46.176;9.874;2023-06-05T01:33:54;17.10;1.00
40177;DHT22;31511;46.176;9.874;2023-06-05T01:36:34;17.10;1.00
40177;DHT22;31511;46.176;9.874;2023-06-05T01:39:21;17.20;1.00
40177;DHT22;31511;46.176;9.874;2023-06-05T01:42:05;17.30;1.00
40177;DHT22;31511;46.176;9.874;2023-06-05T01:44:50;17.40;1.00
40177;DHT22;31511;46.176;9.874;2023-06-05T01:47:35;17.40;1.00
40177;DHT22;31511;46.176;9.874;2023-06-05T01:50:20;17.40;1.00
40177;DHT22;31511;46.176;9.874;2023-06-05T01:53:05;17.30;1.00
40177;DHT22;31511;46.176;9.874;2023-06-05T01:55:49;17.30;1.00
40177;DHT22;31511;46.176;9.874;2023-06-05T01:58:36;17.30;1.00
40177;DHT22;31511;46.176;9.874;2023-06-05T02:01:21;17.30;1.00
40177;DHT22;31511;46.176;9.874;2023-06-05T02:04:06;17.10;1.00
40177;DHT22;31511;46.176;9.874;2023-06-05T02:06:51;17.10;1.00
40177;DHT22;31511;46.176;9.874;2023-06-05T02:09:36;17.00;1.00
40177;DHT22;31511;46.176;9.874;2023-06-05T02:12:20;17.00;1.00
40177;DHT22;31511;46.176;9.874;2023-06-05T02:15:10;17.00;1.00
40177;DHT22;31511;46.176;9.874;2023-06-05T02:17:57;17.20;1.00
40177;DHT22;31511;46.176;9.874;2023-06-05T02:20:41;17.20;1.00
40177;DHT22;31511;46.176;9.874;2023-06-05T02:23:25;17.30;1.00
40177;DHT22;31511;46.176;9.874;2023-06-05T02:26:10;17.40;1.00
40177;DHT22;31511;46.176;9.874;2023-06-05T02:28:54;17.10;1.00
40177;DHT22;31511;46.176;9.874;2023-06-05T02:31:39;17.00;1.00
40177;DHT22;31511;46.176;9.874;2023-06-05T02:34:23;17.00;1.00
40177;DHT22;31511;46.176;9.874;2023-06-05T02:37:08;17.00;1.00
40177;DHT22;31511;46.176;9.874;2023-06-05T02:39:56;16.90;1.00
40177;DHT22;31511;46.176;9.874;2023-06-05T02:42:40;17.00;1.00
40177;DHT22;31511;46.176;9.874;2023-06-05T02:45:35;17.00;1.00
40177;DHT22;31511;46.176;9.874;2023-06-05T02:48:19;16.90;1.00
40177;DHT22;31511;46.176;9.874;2023-06-05T02:51:05;17.00;1.00
40177;DHT22;31511;46.176;9.874;2023-06-05T02:53:50;17.10;1.00
40177;DHT22;31511;46.176;9.874;2023-06-05T02:56:34;17.20;1.00
40177;DHT22;31511;46.176;9.874;2023-06-05T02:59:18;17.30;1.00
40177;DHT22;31511;46.176;9.874;2023-06-05T03:02:03;17.00;1.00
40177;DHT22;31511;46.176;9.874;2023-06-05T03:04:47;16.90;1.00
40177;DHT22;31511;46.176;9.874;2023-06-05T03:07:36;16.90;1.00
40177;DHT22;31511;46.176;9.874;2023-06-05T03:10:21;16.80;1.00
40177;DHT22;31511;46.176;9.874;2023-06-05T03:13:05;16.90;1.00
40177;DHT22;31511;46.176;9.874;2023-06-05T03:15:49;17.10;1.00
40177;DHT22;31511;46.176;9.874;2023-06-05T03:18:37;17.00;1.00
40177;DHT22;31511;46.176;9.874;2023-06-05T03:21:21;16.90;1.00
40177;DHT22;31511;46.176;9.874;2023-06-05T03:24:06;16.90;1.00
40177;DHT22;31511;46.176;9.874;2023-06-05T03:26:50;16.90;1.00
40177;DHT22;31511;46.176;9.874;2023-06-05T03:29:35;16.90;1.00
40177;DHT22;31511;46.176;9.874;2023-06-05T03:32:19;16.90;1.00
40177;DHT22;31511;46.176;9.874;2023-06-05T03:35:03;16.90;1.00
40177;DHT22;31511;46.176;9.874;2023-06-05T03:37:47;17.00;1.00
40177;DHT22;31511;46.176;9.874;2023-06-05T03:40:31;16.90;1.00
40177;DHT22;31511;46.176;9.874;2023-06-05T03:43:15;17.00;1.00
40177;DHT22;31511;46.176;9.874;2023-06-05T03:46:00;17.00;1.00
40177;DHT22;31511;46.176;9.874;2023-06-05T03:48:47;17.10;1.00
40177;DHT22;31511;46.176;9.874;2023-06-05T03:51:32;17.10;1.00
40177;DHT22;31511;46.176;9.874;2023-06-05T03:54:17;17.00;1.00
40177;DHT22;31511;46.176;9.874;2023-06-05T03:57:01;17.00;1.00
40177;DHT22;31511;46.176;9.874;2023-06-05T03:59:46;17.00;1.00
40177;DHT22;31511;46.176;9.874;2023-06-05T04:02:30;17.00;1.00
40177;DHT22;31511;46.176;9.874;2023-06-05T04:05:15;16.90;1.00
40177;DHT22;31511;46.176;9.874;2023-06-05T04:07:59;16.90;1.00
40177;DHT22;31511;46.176;9.874;2023-06-05T04:10:43;16.90;1.00
40177;DHT22;31511;46.176;9.874;2023-06-05T04:13:27;16.90;1.00
40177;DHT22;31511;46.176;9.874;2023-06-05T04:16:12;16.90;1.00
40177;DHT22;31511;46.176;9.874;2023-06-05T04:18:57;17.20;1.00
40177;DHT22;31511;46.176;9.874;2023-06-05T04:21:42;17.20;1.00
40177;DHT22;31511;46.176;9.874;2023-06-05T04:24:26;17.10;1.00
40177;DHT22;31511;46.176;9.874;2023-06-05T04:27:12;17.20;1.00
40177;DHT22;31511;46.176;9.874;2023-06-05T04:29:56;17.30;1.00
40177;DHT22;31511;46.176;9.874;2023-06-05T04:32:40;17.10;1.00
40177;DHT22;31511;46.176;9.874;2023-06-05T04:35:25;17.10;1.00
40177;DHT22;31511;46.176;9.874;2023-06-05T04:38:10;16.90;1.00
40177;DHT22;31511;46.176;9.874;2023-06-05T04:40:54;17.00;1.00
40177;DHT22;31511;46.176;9.874;2023-06-05T04:43:39;16.80;1.00
40177;DHT22;31511;46.176;9.874;2023-06-05T04:46:23;16.70;1.00
40177;DHT22;31511;46.176;9.874;2023-06-05T04:49:07;16.70;1.00
40177;DHT22;31511;46.176;9.874;2023-06-05T04:51:52;16.80;1.00
40177;DHT22;31511;46.176;9.874;2023-06-05T04:54:36;16.80;1.00
40177;DHT22;31511;46.176;9.874;2023-06-05T04:57:21;16.90;1.00
40177;DHT22;31511;46.176;9.874;2023-06-05T05:00:05;16.90;1.00
40177;DHT22;31511;46.176;9.874;2023-06-05T05:02:51;17.10;1.00
40177;DHT22;31511;46.176;9.874;2023-06-05T05:05:36;17.10;1.00
40177;DHT22;31511;46.176;9.874;2023-06-05T05:08:20;17.00;1.00
40177;DHT22;31511;46.176;9.874;2023-06-05T05:11:05;17.20;1.00
40177;DHT22;31511;46.176;9.874;2023-06-05T05:13:49;17.10;1.00
40177;DHT22;31511;46.176;9.874;2023-06-05T05:16:33;17.20;1.00
40177;DHT22;31511;46.176;9.874;2023-06-05T05:19:18;17.10;1.00
40177;DHT22;31511;46.176;9.874;2023-06-05T05:22:02;17.10;1.00
40177;DHT22;31511;46.176;9.874;2023-06-05T05:24:47;17.20;1.00
40177;DHT22;31511;46.176;9.874;2023-06-05T05:27:32;17.40;1.00
40177;DHT22;31511;46.176;9.874;2023-06-05T05:30:16;17.30;1.00
40177;DHT22;31511;46.176;9.874;2023-06-05T05:33:00;17.20;1.00
40177;DHT22;31511;46.176;9.874;2023-06-05T05:35:44;17.20;1.00
40177;DHT22;31511;46.176;9.874;2023-06-05T05:38:28;17.20;1.00
40177;DHT22;31511;46.176;9.874;2023-06-05T05:41:13;17.30;1.00
40177;DHT22;31511;46.176;9.874;2023-06-05T05:43:57;17.40;1.00
40177;DHT22;31511;46.176;9.874;2023-06-05T05:46:41;17.30;1.00
40177;DHT22;31511;46.176;9.874;2023-06-05T05:49:25;17.30;1.00
40177;DHT22;31511;46.176;9.874;2023-06-05T05:52:09;17.30;1.00
40177;DHT22;31511;46.176;9.874;2023-06-05T05:54:53;17.40;1.00
40177;DHT22;31511;46.176;9.874;2023-06-05T05:57:38;17.70;1.00
40177;DHT22;31511;46.176;9.874;2023-06-05T06:00:22;17.70;1.00
40177;DHT22;31511;46.176;9.874;2023-06-05T06:03:06;17.60;1.00
40177;DHT22;31511;46.176;9.874;2023-06-05T06:05:51;17.60;1.00
40177;DHT22;31511;46.176;9.874;2023-06-05T06:08:35;17.60;1.00
40177;DHT22;31511;46.176;9.874;2023-06-05T06:11:20;17.70;1.00
40177;DHT22;31511;46.176;9.874;2023-06-05T06:14:04;17.70;1.00
40177;DHT22;31511;46.176;9.874;2023-06-05T06:16:50;17.90;1.00
40177;DHT22;31511;46.176;9.874;2023-06-05T06:19:34;18.00;1.00
40177;DHT22;31511;46.176;9.874;2023-06-05T06:22:19;18.10;1.00
40177;DHT22;31511;46.176;9.874;2023-06-05T06:25:03;18.20;1.00
40177;DHT22;31511;46.176;9.874;2023-06-05T06:27:47;18.20;1.00
40177;DHT22;31511;46.176;9.874;2023-06-05T06:30:37;18.20;1.00
40177;DHT22;31511;46.176;9.874;2023-06-05T06:33:21;18.20;1.00
40177;DHT22;31511;46.176;9.874;2023-06-05T06:36:06;18.20;1.00
40177;DHT22;31511;46.176;9.874;2023-06-05T06:38:50;18.20;1.00
40177;DHT22;31511;46.176;9.874;2023-06-05T06:41:35;18.10;1.00
40177;DHT22;31511;46.176;9.874;2023-06-05T06:44:19;18.30;1.00
40177;DHT22;31511;46.176;9.874;2023-06-05T06:47:04;18.30;1.00
40177;DHT22;31511;46.176;9.874;2023-06-05T06:49:48;18.40;1.00
40177;DHT22;31511;46.176;9.874;2023-06-05T06:52:32;18.40;1.00
40177;DHT22;31511;46.176;9.874;2023-06-05T06:55:16;18.50;1.00
40177;DHT22;31511;46.176;9.874;2023-06-05T06:58:03;18.50;1.00
40177;DHT22;31511;46.176;9.874;2023-06-05T07:00:47;18.60;1.00
40177;DHT22;31511;46.176;9.874;2023-06-05T07:03:33;18.60;1.00
40177;DHT22;31511;46.176;9.874;2023-06-05T07:06:17;18.70;1.00
40177;DHT22;31511;46.176;9.874;2023-06-05T07:09:01;18.70;1.00
40177;DHT22;31511;46.176;9.874;2023-06-05T07:11:45;18.90;99.90
40177;DHT22;31511;46.176;9.874;2023-06-05T07:14:31;18.90;99.90
40177;DHT22;31511;46.176;9.874;2023-06-05T07:17:16;18.80;99.90
40177;DHT22;31511;46.176;9.874;2023-06-05T07:20:03;18.90;99.90
40177;DHT22;31511;46.176;9.874;2023-06-05T07:22:49;18.90;99.90
40177;DHT22;31511;46.176;9.874;2023-06-05T07:25:33;19.00;99.90
40177;DHT22;31511;46.176;9.874;2023-06-05T07:28:17;18.90;99.90
40177;DHT22;31511;46.176;9.874;2023-06-05T07:31:02;19.00;99.90
40177;DHT22;31511;46.176;9.874;2023-06-05T07:33:48;19.00;99.90
40177;DHT22;31511;46.176;9.874;2023-06-05T07:36:33;19.20;99.90
40177;DHT22;31511;46.176;9.874;2023-06-05T07:39:20;19.30;99.90
40177;DHT22;31511;46.176;9.874;2023-06-05T07:42:04;19.50;99.90
40177;DHT22;31511;46.176;9.874;2023-06-05T07:44:50;19.50;99.90
40177;DHT22;31511;46.176;9.874;2023-06-05T07:47:35;19.40;99.90
40177;DHT22;31511;46.176;9.874;2023-06-05T07:50:20;19.60;99.90
40177;DHT22;31511;46.176;9.874;2023-06-05T07:53:05;19.70;99.90
40177;DHT22;31511;46.176;9.874;2023-06-05T07:55:49;19.70;99.90
40177;DHT22;31511;46.176;9.874;2023-06-05T07:58:36;19.70;99.90
40177;DHT22;31511;46.176;9.874;2023-06-05T08:01:25;19.70;99.90
40177;DHT22;31511;46.176;9.874;2023-06-05T08:04:10;19.80;99.90
40177;DHT22;31511;46.176;9.874;2023-06-05T08:06:57;19.90;99.90
40177;DHT22;31511;46.176;9.874;2023-06-05T08:09:42;19.80;99.90
40177;DHT22;31511;46.176;9.874;2023-06-05T08:12:28;19.90;99.90
40177;DHT22;31511;46.176;9.874;2023-06-05T08:15:12;19.90;99.90
40177;DHT22;31511;46.176;9.874;2023-06-05T08:17:57;19.90;99.90
40177;DHT22;31511;46.176;9.874;2023-06-05T08:20:42;20.10;99.90
40177;DHT22;31511;46.176;9.874;2023-06-05T08:23:26;20.00;99.90
40177;DHT22;31511;46.176;9.874;2023-06-05T08:26:11;20.10;99.90
40177;DHT22;31511;46.176;9.874;2023-06-05T08:28:55;20.20;99.90
40177;DHT22;31511;46.176;9.874;2023-06-05T08:31:41;20.20;99.90
40177;DHT22;31511;46.176;9.874;2023-06-05T08:34:26;20.20;99.90
40177;DHT22;31511;46.176;9.874;2023-06-05T08:37:10;20.20;99.90
40177;DHT22;31511;46.176;9.874;2023-06-05T08:39:55;20.30;99.90
40177;DHT22;31511;46.176;9.874;2023-06-05T08:42:43;20.20;99.90
40177;DHT22;31511;46.176;9.874;2023-06-05T08:45:30;20.30;99.90
40177;DHT22;31511;46.176;9.874;2023-06-05T08:48:14;20.40;99.90
40177;DHT22;31511;46.176;9.874;2023-06-05T08:51:00;20.60;99.90
40177;DHT22;31511;46.176;9.874;2023-06-05T08:54:03;20.70;99.90
40177;DHT22;31511;46.176;9.874;2023-06-05T08:56:56;21.00;99.90
40177;DHT22;31511;46.176;9.874;2023-06-05T08:59:41;21.10;99.90
40177;DHT22;31511;46.176;9.874;2023-06-05T09:02:27;21.00;99.90
40177;DHT22;31511;46.176;9.874;2023-06-05T09:05:11;21.00;99.90
40177;DHT22;31511;46.176;9.874;2023-06-05T09:07:55;21.10;99.90
40177;DHT22;31511;46.176;9.874;2023-06-05T09:10:42;21.00;99.90
40177;DHT22;31511;46.176;9.874;2023-06-05T09:13:30;21.00;99.90
40177;DHT22;31511;46.176;9.874;2023-06-05T09:16:41;20.90;99.90
40177;DHT22;31511;46.176;9.874;2023-06-05T09:19:39;21.10;99.90
40177;DHT22;31511;46.176;9.874;2023-06-05T09:22:33;21.20;99.90
40177;DHT22;31511;46.176;9.874;2023-06-05T09:25:19;21.30;99.90
40177;DHT22;31511;46.176;9.874;2023-06-05T09:28:06;20.80;99.90
40177;DHT22;31511;46.176;9.874;2023-06-05T09:31:03;20.90;99.90
40177;DHT22;31511;46.176;9.874;2023-06-05T09:33:54;20.70;99.90
40177;DHT22;31511;46.176;9.874;2023-06-05T09:36:46;20.70;99.90
40177;DHT22;31511;46.176;9.874;2023-06-05T09:39:32;20.80;99.90
40177;DHT22;31511;46.176;9.874;2023-06-05T09:42:17;20.90;99.90
40177;DHT22;31511;46.176;9.874;2023-06-05T09:45:14;21.00;99.90
40177;DHT22;31511;46.176;9.874;2023-06-05T09:48:01;21.00;99.90
40177;DHT22;31511;46.176;9.874;2023-06-05T09:50:58;21.10;99.90
40177;DHT22;31511;46.176;9.874;2023-06-05T09:53:51;20.90;99.90
40177;DHT22;31511;46.176;9.874;2023-06-05T09:56:36;20.70;99.90
40177;DHT22;31511;46.176;9.874;2023-06-05T09:59:21;20.40;99.90
40177;DHT22;31511;46.176;9.874;2023-06-05T10:02:06;20.40;99.90
40177;DHT22;31511;46.176;9.874;2023-06-05T10:05:01;20.50;99.90
40177;DHT22;31511;46.176;9.874;2023-06-05T10:07:47;20.50;99.90
40177;DHT22;31511;46.176;9.874;2023-06-05T10:10:37;20.60;99.90
40177;DHT22;31511;46.176;9.874;2023-06-05T10:13:22;20.60;99.90
40177;DHT22;31511;46.176;9.874;2023-06-05T10:16:07;20.70;99.90
40177;DHT22;31511;46.176;9.874;2023-06-05T10:18:52;20.70;99.90
40177;DHT22;31511;46.176;9.874;2023-06-05T10:21:36;20.60;99.90
40177;DHT22;31511;46.176;9.874;2023-06-05T10:24:26;20.70;99.90
40177;DHT22;31511;46.176;9.874;2023-06-05T10:33:05;20.90;99.90
40177;DHT22;31511;46.176;9.874;2023-06-05T10:36:05;20.70;99.90
40177;DHT22;31511;46.176;9.874;2023-06-05T10:38:50;20.50;99.90
40177;DHT22;31511;46.176;9.874;2023-06-05T10:41:36;20.40;99.90
40177;DHT22;31511;46.176;9.874;2023-06-05T10:44:37;20.50;99.90
40177;DHT22;31511;46.176;9.874;2023-06-05T10:53:04;21.10;99.90
40177;DHT22;31511;46.176;9.874;2023-06-05T10:55:48;21.20;99.90
40177;DHT22;31511;46.176;9.874;2023-06-05T10:58:32;21.20;99.90
40177;DHT22;31511;46.176;9.874;2023-06-05T11:01:19;21.20;99.90
40177;DHT22;31511;46.176;9.874;2023-06-05T11:04:05;21.40;99.90
40177;DHT22;31511;46.176;9.874;2023-06-05T11:07:13;21.30;99.90
40177;DHT22;31511;46.176;9.874;2023-06-05T11:10:10;21.20;99.90
40177;DHT22;31511;46.176;9.874;2023-06-05T11:13:04;21.50;99.90
40177;DHT22;31511;46.176;9.874;2023-06-05T11:15:48;21.60;99.90
40177;DHT22;31511;46.176;9.874;2023-06-05T11:18:34;21.50;99.90
40177;DHT22;31511;46.176;9.874;2023-06-05T11:21:18;21.50;99.90
40177;DHT22;31511;46.176;9.874;2023-06-05T11:24:15;21.50;99.90
40177;DHT22;31511;46.176;9.874;2023-06-05T11:27:03;21.30;99.90
40177;DHT22;31511;46.176;9.874;2023-06-05T11:29:47;21.30;99.90
40177;DHT22;31511;46.176;9.874;2023-06-05T11:32:33;21.40;99.90
40177;DHT22;31511;46.176;9.874;2023-06-05T11:35:21;21.50;99.90
40177;DHT22;31511;46.176;9.874;2023-06-05T11:40:53;22.00;99.90
40177;DHT22;31511;46.176;9.874;2023-06-05T11:43:45;22.40;99.90
40177;DHT22;31511;46.176;9.874;2023-06-05T11:46:36;22.30;99.90
40177;DHT22;31511;46.176;9.874;2023-06-05T11:49:24;22.00;99.90
40177;DHT22;31511;46.176;9.874;2023-06-05T11:52:17;22.00;99.90
40177;DHT22;31511;46.176;9.874;2023-06-05T11:55:14;21.90;99.90
40177;DHT22;31511;46.176;9.874;2023-06-05T11:57:59;22.00;99.90
40177;DHT22;31511;46.176;9.874;2023-06-05T12:00:44;22.20;99.90
40177;DHT22;31511;46.176;9.874;2023-06-05T12:03:28;22.30;99.90
40177;DHT22;31511;46.176;9.874;2023-06-05T12:06:13;21.90;99.90
40177;DHT22;31511;46.176;9.874;2023-06-05T12:09:09;21.40;99.90
40177;DHT22;31511;46.176;9.874;2023-06-05T12:12:05;21.60;99.90
40177;DHT22;31511;46.176;9.874;2023-06-05T12:14:50;21.40;99.90
40177;DHT22;31511;46.176;9.874;2023-06-05T12:17:37;21.30;99.90
40177;DHT22;31511;46.176;9.874;2023-06-05T12:20:21;21.20;99.90
40177;DHT22;31511;46.176;9.874;2023-06-05T12:23:06;20.80;99.90
40177;DHT22;31511;46.176;9.874;2023-06-05T12:26:03;20.70;99.90
40177;DHT22;31511;46.176;9.874;2023-06-05T12:28:47;20.60;99.90
40177;DHT22;31511;46.176;9.874;2023-06-05T12:31:32;20.30;99.90
40177;DHT22;31511;46.176;9.874;2023-06-05T12:34:17;20.30;99.90
40177;DHT22;31511;46.176;9.874;2023-06-05T12:37:02;20.30;99.90
40177;DHT22;31511;46.176;9.874;2023-06-05T12:39:46;20.50;99.90
40177;DHT22;31511;46.176;9.874;2023-06-05T12:42:33;20.60;99.90
40177;DHT22;31511;46.176;9.874;2023-06-05T12:45:19;20.70;99.90
40177;DHT22;31511;46.176;9.874;2023-06-05T12:48:03;20.70;99.90
40177;DHT22;31511;46.176;9.874;2023-06-05T12:50:48;20.70;99.90
40177;DHT22;31511;46.176;9.874;2023-06-05T12:53:32;20.80;99.90
40177;DHT22;31511;46.176;9.874;2023-06-05T12:56:17;20.60;99.90
40177;DHT22;31511;46.176;9.874;2023-06-05T12:59:01;20.30;99.90
40177;DHT22;31511;46.176;9.874;2023-06-05T13:01:46;20.30;99.90
40177;DHT22;31511;46.176;9.874;2023-06-05T13:04:30;20.30;99.90
40177;DHT22;31511;46.176;9.874;2023-06-05T13:07:16;20.20;99.90
40177;DHT22;31511;46.176;9.874;2023-06-05T13:10:01;20.30;99.90
40177;DHT22;31511;46.176;9.874;2023-06-05T13:12:45;20.30;99.90
40177;DHT22;31511;46.176;9.874;2023-06-05T13:15:30;20.20;99.90
40177;DHT22;31511;46.176;9.874;2023-06-05T13:18:15;20.20;1.00
40177;DHT22;31511;46.176;9.874;2023-06-05T13:20:59;20.10;99.90
40177;DHT22;31511;46.176;9.874;2023-06-05T13:23:44;20.00;99.90
40177;DHT22;31511;46.176;9.874;2023-06-05T13:26:32;19.90;99.90
40177;DHT22;31511;46.176;9.874;2023-06-05T13:29:17;19.90;99.90
40177;DHT22;31511;46.176;9.874;2023-06-05T13:32:01;20.10;99.90
40177;DHT22;31511;46.176;9.874;2023-06-05T13:34:45;20.20;99.90
40177;DHT22;31511;46.176;9.874;2023-06-05T13:37:31;20.20;99.90
40177;DHT22;31511;46.176;9.874;2023-06-05T13:40:15;20.20;99.90
40177;DHT22;31511;46.176;9.874;2023-06-05T13:42:59;20.00;99.90
40177;DHT22;31511;46.176;9.874;2023-06-05T13:45:43;19.80;99.90
40177;DHT22;31511;46.176;9.874;2023-06-05T13:48:29;19.80;99.90
40177;DHT22;31511;46.176;9.874;2023-06-05T13:51:14;19.90;99.90
40177;DHT22;31511;46.176;9.874;2023-06-05T13:53:58;19.90;99.90
40177;DHT22;31511;46.176;9.874;2023-06-05T13:56:42;20.00;99.90
40177;DHT22;31511;46.176;9.874;2023-06-05T13:59:27;19.90;99.90
40177;DHT22;31511;46.176;9.874;2023-06-05T14:02:12;19.90;99.90
40177;DHT22;31511;46.176;9.874;2023-06-05T14:04:56;19.80;99.90
40177;DHT22;31511;46.176;9.874;2023-06-05T14:07:41;19.80;99.90
40177;DHT22;31511;46.176;9.874;2023-06-05T14:10:25;19.70;99.90
40177;DHT22;31511;46.176;9.874;2023-06-05T14:13:09;19.70;99.90
40177;DHT22;31511;46.176;9.874;2023-06-05T14:15:54;19.80;99.90
40177;DHT22;31511;46.176;9.874;2023-06-05T14:18:38;19.80;99.90
40177;DHT22;31511;46.176;9.874;2023-06-05T14:21:22;19.80;99.90
40177;DHT22;31511;46.176;9.874;2023-06-05T14:24:06;19.80;99.90
40177;DHT22;31511;46.176;9.874;2023-06-05T14:26:52;19.80;99.90
40177;DHT22;31511;46.176;9.874;2023-06-05T14:29:36;19.80;99.90
40177;DHT22;31511;46.176;9.874;2023-06-05T14:32:24;19.80;99.90
40177;DHT22;31511;46.176;9.874;2023-06-05T14:35:08;19.90;99.90
40177;DHT22;31511;46.176;9.874;2023-06-05T14:37:52;20.00;99.90
40177;DHT22;31511;46.176;9.874;2023-06-05T14:40:36;20.00;99.90
40177;DHT22;31511;46.176;9.874;2023-06-05T14:43:20;20.00;99.90
40177;DHT22;31511;46.176;9.874;2023-06-05T14:46:05;20.00;99.90
40177;DHT22;31511;46.176;9.874;2023-06-05T14:48:49;20.00;99.90
40177;DHT22;31511;46.176;9.874;2023-06-05T14:51:33;20.10;99.90
40177;DHT22;31511;46.176;9.874;2023-06-05T14:54:17;20.20;99.90
40177;DHT22;31511;46.176;9.874;2023-06-05T14:57:02;20.30;99.90
40177;DHT22;31511;46.176;9.874;2023-06-05T14:59:46;20.30;99.90
40177;DHT22;31511;46.176;9.874;2023-06-05T15:02:31;20.30;99.90
40177;DHT22;31511;46.176;9.874;2023-06-05T15:05:15;20.50;99.90
40177;DHT22;31511;46.176;9.874;2023-06-05T15:07:59;20.60;99.90
40177;DHT22;31511;46.176;9.874;2023-06-05T15:10:43;20.80;99.90
40177;DHT22;31511;46.176;9.874;2023-06-05T15:13:28;20.90;99.90
40177;DHT22;31511;46.176;9.874;2023-06-05T15:16:12;20.70;99.90
40177;DHT22;31511;46.176;9.874;2023-06-05T15:18:56;20.60;99.90
40177;DHT22;31511;46.176;9.874;2023-06-05T15:21:41;20.50;99.90
40177;DHT22;31511;46.176;9.874;2023-06-05T15:24:25;20.50;99.90
40177;DHT22;31511;46.176;9.874;2023-06-05T15:27:10;20.60;99.90
40177;DHT22;31511;46.176;9.874;2023-06-05T15:29:54;20.60;99.90
40177;DHT22;31511;46.176;9.874;2023-06-05T15:32:41;20.60;99.90
40177;DHT22;31511;46.176;9.874;2023-06-05T15:35:29;20.70;99.90
40177;DHT22;31511;46.176;9.874;2023-06-05T15:38:14;20.80;99.90
40177;DHT22;31511;46.176;9.874;2023-06-05T15:40:58;20.80;99.90
40177;DHT22;31511;46.176;9.874;2023-06-05T15:43:43;20.70;99.90
40177;DHT22;31511;46.176;9.874;2023-06-05T15:46:29;20.80;99.90
40177;DHT22;31511;46.176;9.874;2023-06-05T15:49:13;20.70;99.90
40177;DHT22;31511;46.176;9.874;2023-06-05T15:51:58;20.70;99.90
40177;DHT22;31511;46.176;9.874;2023-06-05T15:54:42;20.60;99.90
40177;DHT22;31511;46.176;9.874;2023-06-05T15:57:27;20.60;99.90
40177;DHT22;31511;46.176;9.874;2023-06-05T16:00:12;20.50;99.90
40177;DHT22;31511;46.176;9.874;2023-06-05T16:02:56;20.60;99.90
40177;DHT22;31511;46.176;9.874;2023-06-05T16:05:40;20.70;99.90
40177;DHT22;31511;46.176;9.874;2023-06-05T16:08:25;20.60;99.90
40177;DHT22;31511;46.176;9.874;2023-06-05T16:11:10;20.60;99.90
40177;DHT22;31511;46.176;9.874;2023-06-05T16:13:54;20.60;99.90
40177;DHT22;31511;46.176;9.874;2023-06-05T16:16:38;20.60;99.90
40177;DHT22;31511;46.176;9.874;2023-06-05T16:19:24;20.50;99.90
40177;DHT22;31511;46.176;9.874;2023-06-05T16:22:10;20.60;99.90
40177;DHT22;31511;46.176;9.874;2023-06-05T16:24:55;20.70;99.90
40177;DHT22;31511;46.176;9.874;2023-06-05T16:27:40;20.60;99.90
40177;DHT22;31511;46.176;9.874;2023-06-05T16:30:24;20.50;99.90
40177;DHT22;31511;46.176;9.874;2023-06-05T16:33:10;20.50;99.90
40177;DHT22;31511;46.176;9.874;2023-06-05T16:35:55;20.40;99.90
40177;DHT22;31511;46.176;9.874;2023-06-05T16:38:42;20.30;99.90
40177;DHT22;31511;46.176;9.874;2023-06-05T16:41:29;20.30;99.90
40177;DHT22;31511;46.176;9.874;2023-06-05T16:44:14;20.30;99.90
40177;DHT22;31511;46.176;9.874;2023-06-05T16:46:58;20.40;99.90
40177;DHT22;31511;46.176;9.874;2023-06-05T16:49:47;20.20;99.90
40177;DHT22;31511;46.176;9.874;2023-06-05T16:52:32;20.20;99.90
40177;DHT22;31511;46.176;9.874;2023-06-05T16:55:17;20.20;99.90
40177;DHT22;31511;46.176;9.874;2023-06-05T16:58:02;20.10;99.90
40177;DHT22;31511;46.176;9.874;2023-06-05T17:00:47;20.00;99.90
40177;DHT22;31511;46.176;9.874;2023-06-05T17:03:32;19.90;99.90
40177;DHT22;31511;46.176;9.874;2023-06-05T17:06:18;19.80;99.90
40177;DHT22;31511;46.176;9.874;2023-06-05T17:09:04;19.90;99.90
40177;DHT22;31511;46.176;9.874;2023-06-05T17:11:49;19.80;99.90
40177;DHT22;31511;46.176;9.874;2023-06-05T17:14:34;19.80;99.90
40177;DHT22;31511;46.176;9.874;2023-06-05T17:17:18;19.80;99.90
40177;DHT22;31511;46.176;9.874;2023-06-05T17:20:03;19.80;99.90
40177;DHT22;31511;46.176;9.874;2023-06-05T17:22:47;19.80;99.90
40177;DHT22;31511;46.176;9.874;2023-06-05T17:25:32;19.80;99.90
40177;DHT22;31511;46.176;9.874;2023-06-05T17:28:16;19.80;99.90
40177;DHT22;31511;46.176;9.874;2023-06-05T17:31:01;19.80;99.90
40177;DHT22;31511;46.176;9.874;2023-06-05T17:33:45;19.80;99.90
40177;DHT22;31511;46.176;9.874;2023-06-05T17:36:30;19.80;99.90
40177;DHT22;31511;46.176;9.874;2023-06-05T17:39:14;19.80;99.90
40177;DHT22;31511;46.176;9.874;2023-06-05T17:42:01;19.80;1.00
40177;DHT22;31511;46.176;9.874;2023-06-05T17:44:47;19.70;1.00
40177;DHT22;31511;46.176;9.874;2023-06-05T17:47:31;19.70;1.00
40177;DHT22;31511;46.176;9.874;2023-06-05T17:50:16;19.70;1.00